sensor_id;sensor_type;location;lat;lon;timestamp;temperature;humidity
20722;DHT22;10522;52.198;9.890;2023-04-03T00:00:13;0.90;99.90
20722;DHT22;10522;52.198;9.890;2023-04-03T00:02:39;0.90;99.90
20722;DHT22;10522;52.198;9.890;2023-04-03T00:05:06;1.00;99.90
20722;DHT22;10522;52.198;9.890;2023-04-03T00:07:32;0.90;99.90
20722;DHT22;10522;52.198;9.890;2023-04-03T00:09:58;0.90;99.90
20722;DHT22;10522;52.198;9.890;2023-04-03T00:12:23;0.90;99.90
20722;DHT22;10522;52.198;9.890;2023-04-03T00:14:49;1.00;99.90
20722;DHT22;10522;52.198;9.890;2023-04-03T00:17:15;0.90;99.90
20722;DHT22;10522;52.198;9.890;2023-04-03T00:19:40;0.90;99.90
20722;DHT22;10522;52.198;9.890;2023-04-03T00:22:06;0.90;99.90
20722;DHT22;10522;52.198;9.890;2023-04-03T00:24:31;0.90;99.90
20722;DHT22;10522;52.198;9.890;2023-04-03T00:26:57;0.90;99.90
20722;DHT22;10522;52.198;9.890;2023-04-03T00:29:22;0.90;99.90
20722;DHT22;10522;52.198;9.890;2023-04-03T00:31:48;0.80;99.90
20722;DHT22;10522;52.198;9.890;2023-04-03T00:34:14;0.70;99.90
20722;DHT22;10522;52.198;9.890;2023-04-03T00:36:39;0.70;99.90
20722;DHT22;10522;52.198;9.890;2023-04-03T00:39:05;0.60;99.90
20722;DHT22;10522;52.198;9.890;2023-04-03T00:41:31;0.50;99.90
20722;DHT22;10522;52.198;9.890;2023-04-03T00:43:57;0.50;99.90
20722;DHT22;10522;52.198;9.890;2023-04-03T00:46:23;0.40;99.90
20722;DHT22;10522;52.198;9.890;2023-04-03T00:48:49;0.30;99.90
20722;DHT22;10522;52.198;9.890;2023-04-03T00:51:24;0.30;99.90
20722;DHT22;10522;52.198;9.890;2023-04-03T00:53:51;0.20;99.90
20722;DHT22;10522;52.198;9.890;2023-04-03T00:56:21;0.10;99.90
20722;DHT22;10522;52.198;9.890;2023-04-03T00:58:52;0.10;99.90
20722;DHT22;10522;52.198;9.890;2023-04-03T01:01:23;0.10;99.90
20722;DHT22;10522;52.198;9.890;2023-04-03T01:03:50;0.00;99.90
20722;DHT22;10522;52.198;9.890;2023-04-03T01:06:17;-0.10;99.90
20722;DHT22;10522;52.198;9.890;2023-04-03T01:08:45;-0.10;99.90
20722;DHT22;10522;52.198;9.890;2023-04-03T01:11:13;-0.20;99.90
20722;DHT22;10522;52.198;9.890;2023-04-03T01:13:38;-0.20;99.90
20722;DHT22;10522;52.198;9.890;2023-04-03T01:16:05;-0.20;99.90
20722;DHT22;10522;52.198;9.890;2023-04-03T01:18:32;-0.30;99.90
20722;DHT22;10522;52.198;9.890;2023-04-03T01:26:22;-0.40;99.90
20722;DHT22;10522;52.198;9.890;2023-04-03T01:28:47;-0.40;99.90
20722;DHT22;10522;52.198;9.890;2023-04-03T01:31:40;-0.40;99.90
20722;DHT22;10522;52.198;9.890;2023-04-03T01:34:06;-0.40;99.90
20722;DHT22;10522;52.198;9.890;2023-04-03T01:36:32;-0.40;99.90
20722;DHT22;10522;52.198;9.890;2023-04-03T01:38:59;-0.40;99.90
20722;DHT22;10522;52.198;9.890;2023-04-03T01:41:25;-0.40;99.90
20722;DHT22;10522;52.198;9.890;2023-04-03T01:43:51;-0.40;99.90
20722;DHT22;10522;52.198;9.890;2023-04-03T01:46:18;-0.50;99.90
20722;DHT22;10522;52.198;9.890;2023-04-03T01:48:45;-0.50;99.90
20722;DHT22;10522;52.198;9.890;2023-04-03T01:51:10;-0.60;99.90
20722;DHT22;10522;52.198;9.890;2023-04-03T01:53:36;-0.60;99.90
20722;DHT22;10522;52.198;9.890;2023-04-03T01:56:02;-0.70;99.90
20722;DHT22;10522;52.198;9.890;2023-04-03T01:58:28;-0.70;99.90
20722;DHT22;10522;52.198;9.890;2023-04-03T02:00:53;-0.60;99.90
20722;DHT22;10522;52.198;9.890;2023-04-03T02:03:19;-0.70;99.90
20722;DHT22;10522;52.198;9.890;2023-04-03T02:05:45;-0.70;99.90
20722;DHT22;10522;52.198;9.890;2023-04-03T02:08:11;-0.70;99.90
20722;DHT22;10522;52.198;9.890;2023-04-03T02:10:37;-0.70;99.90
20722;DHT22;10522;52.198;9.890;2023-04-03T02:13:03;-0.70;99.90
20722;DHT22;10522;52.198;9.890;2023-04-03T02:15:28;-0.70;99.90
20722;DHT22;10522;52.198;9.890;2023-04-03T02:17:54;-0.80;99.90
20722;DHT22;10522;52.198;9.890;2023-04-03T02:20:20;-0.80;99.90
20722;DHT22;10522;52.198;9.890;2023-04-03T02:22:46;-0.70;99.90
20722;DHT22;10522;52.198;9.890;2023-04-03T02:25:12;-0.70;99.90
20722;DHT22;10522;52.198;9.890;2023-04-03T02:27:38;-0.60;99.90
20722;DHT22;10522;52.198;9.890;2023-04-03T02:30:04;-0.60;99.90
20722;DHT22;10522;52.198;9.890;2023-04-03T02:32:30;-0.60;99.90
20722;DHT22;10522;52.198;9.890;2023-04-03T02:34:56;-0.60;99.90
20722;DHT22;10522;52.198;9.890;2023-04-03T02:37:22;-0.60;99.90
20722;DHT22;10522;52.198;9.890;2023-04-03T02:39:47;-0.60;99.90
20722;DHT22;10522;52.198;9.890;2023-04-03T02:42:13;-0.60;99.90
20722;DHT22;10522;52.198;9.890;2023-04-03T02:44:39;-0.60;99.90
20722;DHT22;10522;52.198;9.890;2023-04-03T02:47:05;-0.60;99.90
20722;DHT22;10522;52.198;9.890;2023-04-03T02:49:31;-0.60;99.90
20722;DHT22;10522;52.198;9.890;2023-04-03T02:51:56;-0.70;99.90
20722;DHT22;10522;52.198;9.890;2023-04-03T02:54:22;-0.70;99.90
20722;DHT22;10522;52.198;9.890;2023-04-03T02:56:49;-0.70;99.90
20722;DHT22;10522;52.198;9.890;2023-04-03T02:59:14;-0.80;99.90
20722;DHT22;10522;52.198;9.890;2023-04-03T03:01:40;-0.80;99.90
20722;DHT22;10522;52.198;9.890;2023-04-03T03:04:06;-0.80;99.90
20722;DHT22;10522;52.198;9.890;2023-04-03T03:06:32;-0.90;99.90
20722;DHT22;10522;52.198;9.890;2023-04-03T03:08:57;-1.00;99.90
20722;DHT22;10522;52.198;9.890;2023-04-03T03:11:23;-1.00;99.90
20722;DHT22;10522;52.198;9.890;2023-04-03T03:13:49;-1.00;99.90
20722;DHT22;10522;52.198;9.890;2023-04-03T03:16:14;-1.10;99.90
20722;DHT22;10522;52.198;9.890;2023-04-03T03:18:40;-1.10;99.90
20722;DHT22;10522;52.198;9.890;2023-04-03T03:21:06;-1.10;99.90
20722;DHT22;10522;52.198;9.890;2023-04-03T03:23:32;-1.10;99.90
20722;DHT22;10522;52.198;9.890;2023-04-03T03:26:00;-1.20;99.90
20722;DHT22;10522;52.198;9.890;2023-04-03T03:28:26;-1.30;99.90
20722;DHT22;10522;52.198;9.890;2023-04-03T03:30:52;-1.30;99.90
20722;DHT22;10522;52.198;9.890;2023-04-03T03:33:18;-1.40;99.90
20722;DHT22;10522;52.198;9.890;2023-04-03T03:35:44;-1.40;99.90
20722;DHT22;10522;52.198;9.890;2023-04-03T03:38:10;-1.50;99.90
20722;DHT22;10522;52.198;9.890;2023-04-03T03:40:36;-1.50;99.90
20722;DHT22;10522;52.198;9.890;2023-04-03T03:43:02;-1.60;99.90
20722;DHT22;10522;52.198;9.890;2023-04-03T03:45:27;-1.70;99.90
20722;DHT22;10522;52.198;9.890;2023-04-03T03:47:53;-1.80;99.90
20722;DHT22;10522;52.198;9.890;2023-04-03T03:50:19;-1.80;99.90
20722;DHT22;10522;52.198;9.890;2023-04-03T03:52:44;-1.80;99.90
20722;DHT22;10522;52.198;9.890;2023-04-03T03:55:10;-1.80;99.90
20722;DHT22;10522;52.198;9.890;2023-04-03T03:57:36;-1.80;99.90
20722;DHT22;10522;52.198;9.890;2023-04-03T04:00:02;-1.90;99.90
20722;DHT22;10522;52.198;9.890;2023-04-03T04:02:29;-1.90;99.90
20722;DHT22;10522;52.198;9.890;2023-04-03T04:04:54;-1.90;99.90
20722;DHT22;10522;52.198;9.890;2023-04-03T04:07:20;-2.00;99.90
20722;DHT22;10522;52.198;9.890;2023-04-03T04:09:45;-2.00;99.90
20722;DHT22;10522;52.198;9.890;2023-04-03T04:12:11;-2.00;99.90
20722;DHT22;10522;52.198;9.890;2023-04-03T04:14:37;-2.00;99.90
20722;DHT22;10522;52.198;9.890;2023-04-03T04:17:02;-2.10;99.90
20722;DHT22;10522;52.198;9.890;2023-04-03T04:19:28;-2.00;99.90
20722;DHT22;10522;52.198;9.890;2023-04-03T04:21:54;-2.10;99.90
20722;DHT22;10522;52.198;9.890;2023-04-03T04:24:20;-2.10;99.90
20722;DHT22;10522;52.198;9.890;2023-04-03T04:26:45;-2.10;99.90
20722;DHT22;10522;52.198;9.890;2023-04-03T04:29:11;-2.10;99.90
20722;DHT22;10522;52.198;9.890;2023-04-03T04:31:37;-2.20;99.90
20722;DHT22;10522;52.198;9.890;2023-04-03T04:34:02;-2.20;99.90
20722;DHT22;10522;52.198;9.890;2023-04-03T04:36:28;-2.20;99.90
20722;DHT22;10522;52.198;9.890;2023-04-03T04:38:53;-2.20;99.90
20722;DHT22;10522;52.198;9.890;2023-04-03T04:41:22;-2.20;99.90
20722;DHT22;10522;52.198;9.890;2023-04-03T04:43:49;-2.10;99.90
20722;DHT22;10522;52.198;9.890;2023-04-03T04:46:15;-2.00;99.90
20722;DHT22;10522;52.198;9.890;2023-04-03T04:48:41;-2.00;99.90
20722;DHT22;10522;52.198;9.890;2023-04-03T04:51:06;-2.00;99.90
20722;DHT22;10522;52.198;9.890;2023-04-03T04:53:32;-2.00;99.90
20722;DHT22;10522;52.198;9.890;2023-04-03T04:55:58;-2.00;99.90
20722;DHT22;10522;52.198;9.890;2023-04-03T04:58:24;-2.00;99.90
20722;DHT22;10522;52.198;9.890;2023-04-03T05:00:49;-2.00;99.90
20722;DHT22;10522;52.198;9.890;2023-04-03T05:03:15;-2.10;99.90
20722;DHT22;10522;52.198;9.890;2023-04-03T05:05:41;-2.10;99.90
20722;DHT22;10522;52.198;9.890;2023-04-03T05:08:06;-2.10;99.90
20722;DHT22;10522;52.198;9.890;2023-04-03T05:10:34;-2.20;99.90
20722;DHT22;10522;52.198;9.890;2023-04-03T05:12:59;-2.20;99.90
20722;DHT22;10522;52.198;9.890;2023-04-03T05:15:25;-2.30;99.90
20722;DHT22;10522;52.198;9.890;2023-04-03T05:17:50;-2.20;99.90
20722;DHT22;10522;52.198;9.890;2023-04-03T05:20:16;-2.20;99.90
20722;DHT22;10522;52.198;9.890;2023-04-03T05:22:42;-2.20;99.90
20722;DHT22;10522;52.198;9.890;2023-04-03T05:25:08;-2.10;99.90
20722;DHT22;10522;52.198;9.890;2023-04-03T05:27:34;-2.20;99.90
20722;DHT22;10522;52.198;9.890;2023-04-03T05:29:59;-2.10;99.90
20722;DHT22;10522;52.198;9.890;2023-04-03T05:32:25;-2.00;99.90
20722;DHT22;10522;52.198;9.890;2023-04-03T05:34:52;-1.90;99.90
20722;DHT22;10522;52.198;9.890;2023-04-03T05:37:18;-1.80;99.90
20722;DHT22;10522;52.198;9.890;2023-04-03T05:39:45;-1.80;99.90
20722;DHT22;10522;52.198;9.890;2023-04-03T05:42:10;-1.70;99.90
20722;DHT22;10522;52.198;9.890;2023-04-03T05:44:37;-1.70;99.90
20722;DHT22;10522;52.198;9.890;2023-04-03T05:47:03;-1.60;99.90
20722;DHT22;10522;52.198;9.890;2023-04-03T05:49:28;-1.60;99.90
20722;DHT22;10522;52.198;9.890;2023-04-03T05:51:54;-1.50;99.90
20722;DHT22;10522;52.198;9.890;2023-04-03T05:54:25;-1.50;99.90
20722;DHT22;10522;52.198;9.890;2023-04-03T05:56:51;-1.40;99.90
20722;DHT22;10522;52.198;9.890;2023-04-03T05:59:17;-1.30;99.90
20722;DHT22;10522;52.198;9.890;2023-04-03T06:01:43;-1.20;99.90
20722;DHT22;10522;52.198;9.890;2023-04-03T06:04:09;-1.20;99.90
20722;DHT22;10522;52.198;9.890;2023-04-03T06:06:53;-1.10;99.90
20722;DHT22;10522;52.198;9.890;2023-04-03T06:09:22;-1.00;99.90
20722;DHT22;10522;52.198;9.890;2023-04-03T06:11:48;-0.90;99.90
20722;DHT22;10522;52.198;9.890;2023-04-03T06:14:14;-0.80;99.90
20722;DHT22;10522;52.198;9.890;2023-04-03T06:16:40;-0.60;99.90
20722;DHT22;10522;52.198;9.890;2023-04-03T06:19:09;-0.60;99.90
20722;DHT22;10522;52.198;9.890;2023-04-03T06:21:35;-0.60;99.90
20722;DHT22;10522;52.198;9.890;2023-04-03T06:24:02;-0.50;99.90
20722;DHT22;10522;52.198;9.890;2023-04-03T06:26:28;-0.40;99.90
20722;DHT22;10522;52.198;9.890;2023-04-03T06:28:54;-0.40;99.90
20722;DHT22;10522;52.198;9.890;2023-04-03T06:31:19;-0.30;99.90
20722;DHT22;10522;52.198;9.890;2023-04-03T06:33:45;-0.30;99.90
20722;DHT22;10522;52.198;9.890;2023-04-03T06:36:11;-0.30;99.90
20722;DHT22;10522;52.198;9.890;2023-04-03T06:38:37;-0.20;99.90
20722;DHT22;10522;52.198;9.890;2023-04-03T06:41:03;-0.10;99.90
20722;DHT22;10522;52.198;9.890;2023-04-03T06:43:29;-0.10;99.90
20722;DHT22;10522;52.198;9.890;2023-04-03T06:45:56;0.00;99.90
20722;DHT22;10522;52.198;9.890;2023-04-03T06:48:22;0.10;99.90
20722;DHT22;10522;52.198;9.890;2023-04-03T06:50:48;0.20;99.90
20722;DHT22;10522;52.198;9.890;2023-04-03T06:53:13;0.20;99.90
20722;DHT22;10522;52.198;9.890;2023-04-03T06:55:40;0.20;99.90
20722;DHT22;10522;52.198;9.890;2023-04-03T06:58:06;0.30;99.90
20722;DHT22;10522;52.198;9.890;2023-04-03T07:00:32;0.40;99.90
20722;DHT22;10522;52.198;9.890;2023-04-03T07:02:58;0.60;99.90
20722;DHT22;10522;52.198;9.890;2023-04-03T07:05:24;0.60;99.90
20722;DHT22;10522;52.198;9.890;2023-04-03T07:07:50;0.70;99.90
20722;DHT22;10522;52.198;9.890;2023-04-03T07:10:16;0.80;99.90
20722;DHT22;10522;52.198;9.890;2023-04-03T07:12:45;0.90;99.90
20722;DHT22;10522;52.198;9.890;2023-04-03T07:15:11;1.00;99.90
20722;DHT22;10522;52.198;9.890;2023-04-03T07:17:39;1.10;99.90
20722;DHT22;10522;52.198;9.890;2023-04-03T07:20:06;1.30;99.90
20722;DHT22;10522;52.198;9.890;2023-04-03T07:22:33;1.30;99.90
20722;DHT22;10522;52.198;9.890;2023-04-03T07:24:59;1.40;99.90
20722;DHT22;10522;52.198;9.890;2023-04-03T07:27:25;1.50;99.90
20722;DHT22;10522;52.198;9.890;2023-04-03T07:29:51;1.60;99.90
20722;DHT22;10522;52.198;9.890;2023-04-03T07:32:17;1.80;99.90
20722;DHT22;10522;52.198;9.890;2023-04-03T07:34:43;1.90;99.90
20722;DHT22;10522;52.198;9.890;2023-04-03T07:37:09;2.00;99.90
20722;DHT22;10522;52.198;9.890;2023-04-03T07:39:35;2.10;99.90
20722;DHT22;10522;52.198;9.890;2023-04-03T07:42:00;2.20;99.90
20722;DHT22;10522;52.198;9.890;2023-04-03T07:44:27;2.20;99.90
20722;DHT22;10522;52.198;9.890;2023-04-03T07:46:53;2.40;99.90
20722;DHT22;10522;52.198;9.890;2023-04-03T07:49:21;2.50;99.90
20722;DHT22;10522;52.198;9.890;2023-04-03T07:51:48;2.50;99.90
20722;DHT22;10522;52.198;9.890;2023-04-03T07:54:14;2.70;99.90
20722;DHT22;10522;52.198;9.890;2023-04-03T07:56:40;2.70;99.90
20722;DHT22;10522;52.198;9.890;2023-04-03T07:59:08;2.80;99.90
20722;DHT22;10522;52.198;9.890;2023-04-03T08:01:34;3.00;99.90
20722;DHT22;10522;52.198;9.890;2023-04-03T08:03:59;3.10;99.90
20722;DHT22;10522;52.198;9.890;2023-04-03T08:06:25;3.10;99.90
20722;DHT22;10522;52.198;9.890;2023-04-03T08:08:51;3.30;99.90
20722;DHT22;10522;52.198;9.890;2023-04-03T08:11:17;3.30;99.90
20722;DHT22;10522;52.198;9.890;2023-04-03T08:13:44;3.50;99.90
20722;DHT22;10522;52.198;9.890;2023-04-03T08:16:12;3.60;99.90
20722;DHT22;10522;52.198;9.890;2023-04-03T08:18:39;3.80;99.90
20722;DHT22;10522;52.198;9.890;2023-04-03T08:21:13;3.80;99.90
20722;DHT22;10522;52.198;9.890;2023-04-03T08:23:40;4.00;99.90
20722;DHT22;10522;52.198;9.890;2023-04-03T08:26:15;4.10;99.90
20722;DHT22;10522;52.198;9.890;2023-04-03T08:28:41;4.10;99.90
20722;DHT22;10522;52.198;9.890;2023-04-03T08:31:11;4.20;99.90
20722;DHT22;10522;52.198;9.890;2023-04-03T08:33:38;4.40;99.90
20722;DHT22;10522;52.198;9.890;2023-04-03T08:36:05;4.30;99.90
20722;DHT22;10522;52.198;9.890;2023-04-03T08:38:32;4.50;99.90
20722;DHT22;10522;52.198;9.890;2023-04-03T08:41:32;4.80;99.90
20722;DHT22;10522;52.198;9.890;2023-04-03T08:47:04;5.20;99.90
20722;DHT22;10522;52.198;9.890;2023-04-03T08:49:48;5.00;99.90
20722;DHT22;10522;52.198;9.890;2023-04-03T08:52:39;5.00;99.90
20722;DHT22;10522;52.198;9.890;2023-04-03T08:57:45;5.40;99.90
20722;DHT22;10522;52.198;9.890;2023-04-03T09:00:18;5.30;99.90
20722;DHT22;10522;52.198;9.890;2023-04-03T09:02:55;5.50;99.90
20722;DHT22;10522;52.198;9.890;2023-04-03T09:08:12;5.50;99.90
20722;DHT22;10522;52.198;9.890;2023-04-03T09:10:40;5.70;99.90
20722;DHT22;10522;52.198;9.890;2023-04-03T09:13:13;5.90;99.90
20722;DHT22;10522;52.198;9.890;2023-04-03T09:15:46;5.70;99.90
20722;DHT22;10522;52.198;9.890;2023-04-03T09:18:20;5.60;99.90
20722;DHT22;10522;52.198;9.890;2023-04-03T09:23:30;5.60;99.90
20722;DHT22;10522;52.198;9.890;2023-04-03T09:26:17;5.50;99.90
20722;DHT22;10522;52.198;9.890;2023-04-03T09:28:45;5.30;99.90
20722;DHT22;10522;52.198;9.890;2023-04-03T09:31:16;5.00;99.90
20722;DHT22;10522;52.198;9.890;2023-04-03T09:33:44;5.20;99.90
20722;DHT22;10522;52.198;9.890;2023-04-03T09:36:10;5.30;99.90
20722;DHT22;10522;52.198;9.890;2023-04-03T09:38:39;5.50;99.90
20722;DHT22;10522;52.198;9.890;2023-04-03T09:41:07;5.60;99.90
20722;DHT22;10522;52.198;9.890;2023-04-03T09:43:34;5.80;99.90
20722;DHT22;10522;52.198;9.890;2023-04-03T09:46:33;6.30;99.90
20722;DHT22;10522;52.198;9.890;2023-04-03T09:49:04;6.30;99.90
20722;DHT22;10522;52.198;9.890;2023-04-03T09:51:31;6.40;99.90
20722;DHT22;10522;52.198;9.890;2023-04-03T09:53:57;6.40;99.90
20722;DHT22;10522;52.198;9.890;2023-04-03T09:56:30;6.40;99.90
20722;DHT22;10522;52.198;9.890;2023-04-03T10:01:36;6.60;99.90
20722;DHT22;10522;52.198;9.890;2023-04-03T10:04:07;6.90;99.90
20722;DHT22;10522;52.198;9.890;2023-04-03T10:06:36;7.10;99.90
20722;DHT22;10522;52.198;9.890;2023-04-03T10:09:06;7.30;99.90
20722;DHT22;10522;52.198;9.890;2023-04-03T10:14:22;7.10;99.90
20722;DHT22;10522;52.198;9.890;2023-04-03T10:19:57;6.60;99.90
20722;DHT22;10522;52.198;9.890;2023-04-03T10:25:40;7.40;99.90
20722;DHT22;10522;52.198;9.890;2023-04-03T10:31:04;7.30;99.90
20722;DHT22;10522;52.198;9.890;2023-04-03T10:41:55;7.20;99.90
20722;DHT22;10522;52.198;9.890;2023-04-03T10:47:18;7.90;99.90
20722;DHT22;10522;52.198;9.890;2023-04-03T10:52:27;7.80;99.90
20722;DHT22;10522;52.198;9.890;2023-04-03T10:55:22;7.60;99.90
20722;DHT22;10522;52.198;9.890;2023-04-03T10:57:50;7.70;99.90
20722;DHT22;10522;52.198;9.890;2023-04-03T11:00:19;8.20;99.90
20722;DHT22;10522;52.198;9.890;2023-04-03T11:02:55;8.30;99.90
20722;DHT22;10522;52.198;9.890;2023-04-03T11:05:31;8.00;99.90
20722;DHT22;10522;52.198;9.890;2023-04-03T11:08:05;7.60;99.90
20722;DHT22;10522;52.198;9.890;2023-04-03T11:10:48;7.10;99.90
20722;DHT22;10522;52.198;9.890;2023-04-03T11:13:19;7.00;99.90
20722;DHT22;10522;52.198;9.890;2023-04-03T11:15:46;7.70;99.90
20722;DHT22;10522;52.198;9.890;2023-04-03T11:18:19;8.00;99.90
20722;DHT22;10522;52.198;9.890;2023-04-03T11:21:04;7.70;99.90
20722;DHT22;10522;52.198;9.890;2023-04-03T11:23:35;7.20;99.90
20722;DHT22;10522;52.198;9.890;2023-04-03T11:26:12;6.90;99.90
20722;DHT22;10522;52.198;9.890;2023-04-03T11:28:38;6.30;99.90
20722;DHT22;10522;52.198;9.890;2023-04-03T11:31:24;6.00;99.90
20722;DHT22;10522;52.198;9.890;2023-04-03T11:36:45;6.60;99.90
20722;DHT22;10522;52.198;9.890;2023-04-03T11:39:22;6.80;99.90
20722;DHT22;10522;52.198;9.890;2023-04-03T11:41:49;6.70;99.90
20722;DHT22;10522;52.198;9.890;2023-04-03T11:44:37;6.50;99.90
20722;DHT22;10522;52.198;9.890;2023-04-03T11:48:41;6.70;99.90
20722;DHT22;10522;52.198;9.890;2023-04-03T11:50:46;6.60;99.90
20722;DHT22;10522;52.198;9.890;2023-04-03T11:58:18;6.90;99.90
20722;DHT22;10522;52.198;9.890;2023-04-03T12:16:33;7.30;99.90
20722;DHT22;10522;52.198;9.890;2023-04-03T12:19:33;7.10;99.90
20722;DHT22;10522;52.198;9.890;2023-04-03T12:24:28;6.50;99.90
20722;DHT22;10522;52.198;9.890;2023-04-03T12:35:19;7.70;99.90
20722;DHT22;10522;52.198;9.890;2023-04-03T12:41:36;7.80;99.90
20722;DHT22;10522;52.198;9.890;2023-04-03T12:46:43;8.70;99.90
20722;DHT22;10522;52.198;9.890;2023-04-03T12:49:41;8.40;99.90
20722;DHT22;10522;52.198;9.890;2023-04-03T12:52:23;8.60;99.90
20722;DHT22;10522;52.198;9.890;2023-04-03T12:54:51;8.40;99.90
20722;DHT22;10522;52.198;9.890;2023-04-03T12:57:20;7.80;99.90
20722;DHT22;10522;52.198;9.890;2023-04-03T12:59:46;7.70;99.90
20722;DHT22;10522;52.198;9.890;2023-04-03T13:04:55;7.20;99.90
20722;DHT22;10522;52.198;9.890;2023-04-03T13:07:31;7.20;99.90
20722;DHT22;10522;52.198;9.890;2023-04-03T13:12:32;8.10;99.90
20722;DHT22;10522;52.198;9.890;2023-04-03T13:15:11;8.50;99.90
20722;DHT22;10522;52.198;9.890;2023-04-03T13:17:41;8.60;99.90
20722;DHT22;10522;52.198;9.890;2023-04-03T13:20:18;8.20;99.90
20722;DHT22;10522;52.198;9.890;2023-04-03T13:23:27;7.90;99.90
20722;DHT22;10522;52.198;9.890;2023-04-03T13:25:47;7.90;99.90
20722;DHT22;10522;52.198;9.890;2023-04-03T13:28:17;8.90;99.90
20722;DHT22;10522;52.198;9.890;2023-04-03T13:33:36;8.60;99.90
20722;DHT22;10522;52.198;9.890;2023-04-03T13:36:21;8.00;99.90
20722;DHT22;10522;52.198;9.890;2023-04-03T13:38:59;8.00;99.90
20722;DHT22;10522;52.198;9.890;2023-04-03T13:41:39;7.80;99.90
20722;DHT22;10522;52.198;9.890;2023-04-03T13:46:40;7.30;99.90
20722;DHT22;10522;52.198;9.890;2023-04-03T13:49:21;7.10;99.90
20722;DHT22;10522;52.198;9.890;2023-04-03T13:51:49;7.10;99.90
20722;DHT22;10522;52.198;9.890;2023-04-03T13:54:24;6.90;99.90
20722;DHT22;10522;52.198;9.890;2023-04-03T13:56:58;6.80;99.90
20722;DHT22;10522;52.198;9.890;2023-04-03T13:59:35;6.60;99.90
20722;DHT22;10522;52.198;9.890;2023-04-03T14:04:32;8.20;99.90
20722;DHT22;10522;52.198;9.890;2023-04-03T14:06:58;8.70;99.90
20722;DHT22;10522;52.198;9.890;2023-04-03T14:09:26;9.10;99.90
20722;DHT22;10522;52.198;9.890;2023-04-03T14:11:55;9.20;99.90
20722;DHT22;10522;52.198;9.890;2023-04-03T14:14:25;9.70;99.90
20722;DHT22;10522;52.198;9.890;2023-04-03T14:16:55;10.00;99.90
20722;DHT22;10522;52.198;9.890;2023-04-03T14:19:25;10.20;99.90
20722;DHT22;10522;52.198;9.890;2023-04-03T14:21:51;10.10;99.90
20722;DHT22;10522;52.198;9.890;2023-04-03T14:24:18;9.10;99.90
20722;DHT22;10522;52.198;9.890;2023-04-03T14:26:44;8.60;99.90
20722;DHT22;10522;52.198;9.890;2023-04-03T14:29:11;8.30;99.90
20722;DHT22;10522;52.198;9.890;2023-04-03T14:31:37;8.50;99.90
20722;DHT22;10522;52.198;9.890;2023-04-03T14:34:03;8.30;99.90
20722;DHT22;10522;52.198;9.890;2023-04-03T14:36:29;8.10;99.90
20722;DHT22;10522;52.198;9.890;2023-04-03T14:38:56;8.30;99.90
20722;DHT22;10522;52.198;9.890;2023-04-03T14:41:23;8.20;99.90
20722;DHT22;10522;52.198;9.890;2023-04-03T14:43:50;8.10;99.90
20722;DHT22;10522;52.198;9.890;2023-04-03T14:46:28;7.70;99.90
20722;DHT22;10522;52.198;9.890;2023-04-03T14:48:54;7.60;99.90
20722;DHT22;10522;52.198;9.890;2023-04-03T14:51:20;7.20;99.90
20722;DHT22;10522;52.198;9.890;2023-04-03T14:53:47;7.20;99.90
20722;DHT22;10522;52.198;9.890;2023-04-03T14:56:18;8.60;99.90
20722;DHT22;10522;52.198;9.890;2023-04-03T14:58:45;10.60;99.90
20722;DHT22;10522;52.198;9.890;2023-04-03T15:01:14;11.30;99.90
20722;DHT22;10522;52.198;9.890;2023-04-03T15:03:40;11.70;99.90
20722;DHT22;10522;52.198;9.890;2023-04-03T15:06:06;12.30;99.90
20722;DHT22;10522;52.198;9.890;2023-04-03T15:08:31;12.00;99.90
20722;DHT22;10522;52.198;9.890;2023-04-03T15:10:57;10.40;99.90
20722;DHT22;10522;52.198;9.890;2023-04-03T15:13:24;10.40;99.90
20722;DHT22;10522;52.198;9.890;2023-04-03T15:15:50;9.60;99.90
20722;DHT22;10522;52.198;9.890;2023-04-03T15:18:25;9.80;99.90
20722;DHT22;10522;52.198;9.890;2023-04-03T15:20:52;10.90;99.90
20722;DHT22;10522;52.198;9.890;2023-04-03T15:23:18;11.80;99.90
20722;DHT22;10522;52.198;9.890;2023-04-03T15:25:46;11.80;99.90
20722;DHT22;10522;52.198;9.890;2023-04-03T15:30:49;10.60;99.90
20722;DHT22;10522;52.198;9.890;2023-04-03T15:33:15;9.80;99.90
20722;DHT22;10522;52.198;9.890;2023-04-03T15:35:41;8.50;99.90
20722;DHT22;10522;52.198;9.890;2023-04-03T15:38:07;7.90;99.90
20722;DHT22;10522;52.198;9.890;2023-04-03T15:40:33;8.90;99.90
20722;DHT22;10522;52.198;9.890;2023-04-03T15:42:59;11.00;99.90
20722;DHT22;10522;52.198;9.890;2023-04-03T15:45:24;12.20;99.90
20722;DHT22;10522;52.198;9.890;2023-04-03T15:47:51;13.30;99.90
20722;DHT22;10522;52.198;9.890;2023-04-03T15:50:16;13.10;99.90
20722;DHT22;10522;52.198;9.890;2023-04-03T15:52:43;12.80;99.90
20722;DHT22;10522;52.198;9.890;2023-04-03T15:55:09;11.70;99.90
20722;DHT22;10522;52.198;9.890;2023-04-03T16:00:10;10.10;99.90
20722;DHT22;10522;52.198;9.890;2023-04-03T16:02:36;8.80;99.90
20722;DHT22;10522;52.198;9.890;2023-04-03T16:05:02;8.20;99.90
20722;DHT22;10522;52.198;9.890;2023-04-03T16:07:28;8.60;99.90
20722;DHT22;10522;52.198;9.890;2023-04-03T16:09:53;8.30;99.90
20722;DHT22;10522;52.198;9.890;2023-04-03T16:12:19;8.10;99.90
20722;DHT22;10522;52.198;9.890;2023-04-03T16:14:45;7.80;99.90
20722;DHT22;10522;52.198;9.890;2023-04-03T16:17:11;7.80;99.90
20722;DHT22;10522;52.198;9.890;2023-04-03T16:19:36;9.20;99.90
20722;DHT22;10522;52.198;9.890;2023-04-03T16:22:02;9.10;99.90
20722;DHT22;10522;52.198;9.890;2023-04-03T16:24:27;8.70;99.90
20722;DHT22;10522;52.198;9.890;2023-04-03T16:26:54;8.20;99.90
20722;DHT22;10522;52.198;9.890;2023-04-03T16:29:20;8.60;99.90
20722;DHT22;10522;52.198;9.890;2023-04-03T16:31:45;9.90;99.90
20722;DHT22;10522;52.198;9.890;2023-04-03T16:34:11;10.60;99.90
20722;DHT22;10522;52.198;9.890;2023-04-03T16:36:37;11.40;99.90
20722;DHT22;10522;52.198;9.890;2023-04-03T16:39:03;11.60;99.90
20722;DHT22;10522;52.198;9.890;2023-04-03T16:41:29;12.30;99.90
20722;DHT22;10522;52.198;9.890;2023-04-03T16:43:54;12.30;99.90
20722;DHT22;10522;52.198;9.890;2023-04-03T16:46:20;11.50;99.90
20722;DHT22;10522;52.198;9.890;2023-04-03T16:48:46;10.60;99.90
20722;DHT22;10522;52.198;9.890;2023-04-03T16:51:12;10.70;99.90
20722;DHT22;10522;52.198;9.890;2023-04-03T16:53:38;10.40;99.90
20722;DHT22;10522;52.198;9.890;2023-04-03T16:56:04;9.10;99.90
20722;DHT22;10522;52.198;9.890;2023-04-03T16:58:30;7.90;99.90
20722;DHT22;10522;52.198;9.890;2023-04-03T17:00:55;7.20;99.90
20722;DHT22;10522;52.198;9.890;2023-04-03T17:03:21;6.80;99.90
20722;DHT22;10522;52.198;9.890;2023-04-03T17:05:48;6.80;99.90
20722;DHT22;10522;52.198;9.890;2023-04-03T17:08:17;8.00;99.90
20722;DHT22;10522;52.198;9.890;2023-04-03T17:10:43;9.10;99.90
20722;DHT22;10522;52.198;9.890;2023-04-03T17:13:09;10.10;99.90
20722;DHT22;10522;52.198;9.890;2023-04-03T17:15:34;10.50;99.90
20722;DHT22;10522;52.198;9.890;2023-04-03T17:18:00;10.30;99.90
20722;DHT22;10522;52.198;9.890;2023-04-03T17:20:26;10.30;99.90
20722;DHT22;10522;52.198;9.890;2023-04-03T17:22:52;9.90;99.90
20722;DHT22;10522;52.198;9.890;2023-04-03T17:25:19;9.60;99.90
20722;DHT22;10522;52.198;9.890;2023-04-03T17:27:44;8.40;99.90
20722;DHT22;10522;52.198;9.890;2023-04-03T17:30:10;7.50;99.90